createdAt,value
2018-01-30T00:00:38.592Z,1031.85
2018-01-30T00:01:38.588Z,1031.88
2018-01-30T00:02:38.487Z,1031.92
2018-01-30T00:03:38.557Z,1031.93
2018-01-30T00:04:38.557Z,1031.96
2018-01-30T00:05:38.641Z,1031.86
2018-01-30T00:06:39.218Z,1031.87
2018-01-30T00:07:38.773Z,1031.84
2018-01-30T00:08:39.447Z,1031.78
2018-01-30T00:09:39.375Z,1031.85
2018-01-30T00:10:38.859Z,1031.88
2018-01-30T00:11:38.513Z,1031.82
2018-01-30T00:12:39.099Z,1031.78
2018-01-30T00:13:38.739Z,1031.83
2018-01-30T00:14:38.651Z,1031.7
2018-01-30T00:15:38.545Z,1031.75
2018-01-30T00:16:39.150Z,1031.71
2018-01-30T00:17:38.846Z,1031.75
2018-01-30T00:18:38.578Z,1031.79
2018-01-30T00:19:38.714Z,1031.81
2018-01-30T00:20:38.726Z,1031.84
2018-01-30T00:21:38.911Z,1031.9
2018-01-30T00:22:38.703Z,1031.94
2018-01-30T00:23:38.611Z,1031.96
2018-01-30T00:24:38.570Z,1032
2018-01-30T00:25:38.793Z,1032.04
2018-01-30T00:26:39.222Z,1032.02
2018-01-30T00:27:38.706Z,1032.04
2018-01-30T00:28:38.503Z,1032.1
2018-01-30T00:29:38.503Z,1032.08
2018-01-30T00:30:38.577Z,1032.11
2018-01-30T00:31:38.787Z,1032.15
2018-01-30T00:32:38.569Z,1032.14
2018-01-30T00:33:38.699Z,1032.05
2018-01-30T00:34:38.563Z,1032.14
2018-01-30T00:35:38.798Z,1032.12
2018-01-30T00:36:38.820Z,1032.08
2018-01-30T00:37:38.658Z,1032.14
2018-01-30T00:38:38.653Z,1032.11
2018-01-30T00:39:38.796Z,1032.06
2018-01-30T00:40:38.842Z,1032.06
2018-01-30T00:41:38.562Z,1032.07
2018-01-30T00:42:38.715Z,1032.1
2018-01-30T00:43:38.723Z,1032.08
2018-01-30T00:44:38.593Z,1032.11
2018-01-30T00:45:38.611Z,1032.08
2018-01-30T00:46:38.585Z,1032.07
2018-01-30T00:47:38.624Z,1032.13
2018-01-30T00:48:38.663Z,1032.12
2018-01-30T00:49:38.638Z,1032.14
2018-01-30T00:50:38.755Z,1032.16
2018-01-30T00:51:38.527Z,1032.14
2018-01-30T00:52:38.888Z,1032.12
2018-01-30T00:53:38.487Z,1032.09
2018-01-30T00:54:38.550Z,1032.15
2018-01-30T00:55:38.499Z,1032.11
2018-01-30T00:56:38.611Z,1032.15
2018-01-30T00:57:38.673Z,1032.14
2018-01-30T00:58:38.735Z,1032.17
2018-01-30T00:59:38.698Z,1032.19
2018-01-30T01:00:38.594Z,1032.21
2018-01-30T01:01:39.117Z,1032.21
2018-01-30T01:02:38.555Z,1032.24
2018-01-30T01:03:38.549Z,1032.28
2018-01-30T01:04:38.506Z,1032.27
2018-01-30T01:05:38.695Z,1032.27
2018-01-30T01:06:38.750Z,1032.28
2018-01-30T01:07:38.592Z,1032.26
2018-01-30T01:08:38.520Z,1032.29
2018-01-30T01:09:38.492Z,1032.28
2018-01-30T01:10:38.668Z,1032.31
2018-01-30T01:11:38.678Z,1032.33
2018-01-30T01:12:38.940Z,1032.44
2018-01-30T01:13:38.845Z,1032.39
2018-01-30T01:14:38.583Z,1032.39
2018-01-30T01:15:38.833Z,1032.39
2018-01-30T01:16:38.629Z,1032.43
2018-01-30T01:17:38.807Z,1032.42
2018-01-30T01:18:38.640Z,1032.44
2018-01-30T01:19:38.567Z,1032.45
2018-01-30T01:20:38.639Z,1032.48
2018-01-30T01:21:38.540Z,1032.5
2018-01-30T01:22:38.892Z,1032.52
2018-01-30T01:23:39.034Z,1032.53
2018-01-30T01:24:39.040Z,1032.57
2018-01-30T01:25:38.856Z,1032.5
2018-01-30T01:26:38.774Z,1032.55
2018-01-30T01:27:38.574Z,1032.52
2018-01-30T01:28:38.598Z,1032.48
2018-01-30T01:29:39.100Z,1032.51
2018-01-30T01:30:38.866Z,1032.49
2018-01-30T01:31:38.958Z,1032.48
2018-01-30T01:32:38.630Z,1032.49
2018-01-30T01:33:39.718Z,1032.46
2018-01-30T01:34:38.622Z,1032.53
2018-01-30T01:35:38.877Z,1032.5
2018-01-30T01:36:38.780Z,1032.56
2018-01-30T01:37:38.650Z,1032.48
2018-01-30T01:38:38.636Z,1032.48
2018-01-30T01:39:38.940Z,1032.5
2018-01-30T01:40:38.764Z,1032.53
2018-01-30T01:41:38.680Z,1032.53
2018-01-30T01:42:38.848Z,1032.51
2018-01-30T01:43:38.717Z,1032.56
2018-01-30T01:44:38.709Z,1032.59
2018-01-30T01:45:38.843Z,1032.62
2018-01-30T01:46:38.710Z,1032.64
2018-01-30T01:47:39.679Z,1032.63
2018-01-30T01:48:38.595Z,1032.64
2018-01-30T01:49:39.211Z,1032.69
2018-01-30T01:50:38.710Z,1032.74
2018-01-30T01:51:39.002Z,1032.9
2018-01-30T01:52:38.916Z,1032.97
2018-01-30T01:53:38.627Z,1032.97
2018-01-30T01:54:38.679Z,1033
2018-01-30T01:55:38.841Z,1032.98
2018-01-30T01:56:38.794Z,1032.85
2018-01-30T01:57:38.608Z,1032.87
2018-01-30T01:58:38.748Z,1032.91
2018-01-30T01:59:38.632Z,1032.89
2018-01-30T02:00:38.640Z,1032.88
2018-01-30T02:01:39.012Z,1032.86
2018-01-30T02:02:38.680Z,1032.87
2018-01-30T02:03:38.823Z,1032.83
2018-01-30T02:04:38.738Z,1032.79
2018-01-30T02:05:38.827Z,1032.84
2018-01-30T02:06:38.672Z,1032.85
2018-01-30T02:07:38.819Z,1032.86
2018-01-30T02:08:38.707Z,1032.85
2018-01-30T02:09:38.657Z,1032.81
2018-01-30T02:10:38.693Z,1032.81
2018-01-30T02:11:38.837Z,1032.84
2018-01-30T02:12:38.638Z,1032.8
2018-01-30T02:13:39.290Z,1032.78
2018-01-30T02:14:38.683Z,1032.77
2018-01-30T02:15:39.304Z,1032.73
2018-01-30T02:16:38.841Z,1032.69
2018-01-30T02:17:38.776Z,1032.76
2018-01-30T02:18:38.515Z,1032.77
2018-01-30T02:19:39.454Z,1032.79
2018-01-30T02:20:38.733Z,1032.79
2018-01-30T02:21:38.952Z,1032.72
2018-01-30T02:22:39.181Z,1032.78
2018-01-30T02:23:39.801Z,1032.77
2018-01-30T02:24:38.988Z,1032.79
2018-01-30T02:25:39.758Z,1032.75
2018-01-30T02:26:38.635Z,1032.78
2018-01-30T02:27:38.628Z,1032.75
2018-01-30T02:28:39.020Z,1032.8
2018-01-30T02:29:38.624Z,1032.83
2018-01-30T02:30:38.667Z,1032.75
2018-01-30T02:31:39.346Z,1032.85
2018-01-30T02:32:38.846Z,1032.84
2018-01-30T02:33:38.751Z,1032.8
2018-01-30T02:34:39.141Z,1032.83
2018-01-30T02:35:38.749Z,1032.86
2018-01-30T02:36:38.748Z,1032.84
2018-01-30T02:37:38.778Z,1032.83
2018-01-30T02:38:39.341Z,1032.8
2018-01-30T02:39:38.923Z,1032.79
2018-01-30T02:40:38.717Z,1032.84
2018-01-30T02:41:38.808Z,1032.82
2018-01-30T02:42:39.206Z,1032.83
2018-01-30T02:43:39.111Z,1032.83
2018-01-30T02:44:38.798Z,1032.88
2018-01-30T02:45:38.980Z,1032.82
2018-01-30T02:46:38.938Z,1032.88
2018-01-30T02:47:38.786Z,1032.86
2018-01-30T02:48:38.787Z,1032.85
2018-01-30T02:49:39.499Z,1032.86
2018-01-30T02:50:39.033Z,1032.87
2018-01-30T02:51:38.949Z,1032.83
2018-01-30T02:52:38.882Z,1032.85
2018-01-30T02:53:39.504Z,1032.87
2018-01-30T02:54:39.539Z,1032.87
2018-01-30T02:55:38.891Z,1032.86
2018-01-30T02:56:38.968Z,1032.85
2018-01-30T02:57:38.862Z,1032.83
2018-01-30T02:58:38.902Z,1032.89
2018-01-30T02:59:38.814Z,1032.93
2018-01-30T03:00:38.695Z,1032.93
2018-01-30T03:01:38.840Z,1032.92
2018-01-30T03:02:39.661Z,1032.88
2018-01-30T03:03:39.043Z,1032.9
2018-01-30T03:04:38.863Z,1032.88
2018-01-30T03:05:39.035Z,1032.82
2018-01-30T03:06:38.776Z,1032.87
2018-01-30T03:07:37.839Z,1032.88
2018-01-30T03:08:37.902Z,1032.88
2018-01-30T03:09:37.994Z,1032.85
2018-01-30T03:10:37.751Z,1032.83
2018-01-30T03:11:37.788Z,1032.85
2018-01-30T03:12:37.894Z,1032.87
2018-01-30T03:13:37.817Z,1032.87
2018-01-30T03:14:38.065Z,1032.86
2018-01-30T03:15:37.957Z,1032.88
2018-01-30T03:16:37.964Z,1032.87
2018-01-30T03:17:38.396Z,1032.87
2018-01-30T03:18:38.192Z,1032.92
2018-01-30T03:19:37.996Z,1032.91
2018-01-30T03:20:37.944Z,1032.92
2018-01-30T03:21:38.013Z,1032.91
2018-01-30T03:22:37.789Z,1032.93
2018-01-30T03:23:37.816Z,1032.93
2018-01-30T03:24:37.872Z,1032.95
2018-01-30T03:25:38.186Z,1032.94
2018-01-30T03:26:37.782Z,1032.98
2018-01-30T03:27:37.847Z,1032.94
2018-01-30T03:28:37.889Z,1032.94
2018-01-30T03:29:38.478Z,1032.98
2018-01-30T03:30:37.819Z,1032.97
2018-01-30T03:31:37.953Z,1032.99
2018-01-30T03:32:37.700Z,1032.98
2018-01-30T03:33:37.808Z,1032.96
2018-01-30T03:34:37.744Z,1032.94
2018-01-30T03:35:37.754Z,1032.92
2018-01-30T03:36:37.745Z,1032.92
2018-01-30T03:37:37.867Z,1032.89
2018-01-30T03:38:37.766Z,1032.91
2018-01-30T03:39:37.939Z,1032.91
2018-01-30T03:40:37.854Z,1032.9
2018-01-30T03:41:37.797Z,1032.9
2018-01-30T03:42:37.757Z,1032.91
2018-01-30T03:43:37.799Z,1032.94
2018-01-30T03:44:37.805Z,1032.99
2018-01-30T03:45:37.808Z,1032.96
2018-01-30T03:46:37.814Z,1033.03
2018-01-30T03:47:37.768Z,1032.96
2018-01-30T03:48:37.832Z,1032.94
2018-01-30T03:49:37.895Z,1033.03
2018-01-30T03:50:37.779Z,1033.01
2018-01-30T03:51:37.791Z,1033.02
2018-01-30T03:52:37.786Z,1033.05
2018-01-30T03:53:37.718Z,1033.06
2018-01-30T03:54:37.776Z,1033.09
2018-01-30T03:55:37.690Z,1033.09
2018-01-30T03:56:37.851Z,1033.11
2018-01-30T03:57:37.826Z,1033.12
2018-01-30T03:58:37.882Z,1033.1
2018-01-30T03:59:37.791Z,1033.11
2018-01-30T04:00:37.821Z,1033.14
2018-01-30T04:01:37.749Z,1033.12
2018-01-30T04:02:37.835Z,1033.11
2018-01-30T04:03:37.937Z,1033.09
2018-01-30T04:04:37.866Z,1033.08
2018-01-30T04:05:37.806Z,1033.11
2018-01-30T04:06:37.789Z,1033.1
2018-01-30T04:07:37.840Z,1033.07
2018-01-30T04:08:37.909Z,1033.08
2018-01-30T04:09:37.823Z,1033.11
2018-01-30T04:10:37.856Z,1033.1
2018-01-30T04:11:38.569Z,1033.08
2018-01-30T04:12:37.885Z,1033.12
2018-01-30T04:13:37.878Z,1033.1
2018-01-30T04:14:37.965Z,1033.15
2018-01-30T04:15:37.809Z,1033.13
2018-01-30T04:16:37.786Z,1033.17
2018-01-30T04:17:37.878Z,1033.21
2018-01-30T04:18:37.877Z,1033.19
2018-01-30T04:19:37.793Z,1033.23
2018-01-30T04:20:37.904Z,1033.25
2018-01-30T04:21:37.898Z,1033.25
2018-01-30T04:22:37.785Z,1033.3
2018-01-30T04:23:37.903Z,1033.28
2018-01-30T04:24:37.805Z,1033.3
2018-01-30T04:25:37.784Z,1033.32
2018-01-30T04:26:37.831Z,1033.34
2018-01-30T04:27:37.901Z,1033.36
2018-01-30T04:28:37.884Z,1033.33
2018-01-30T04:29:37.886Z,1033.3
2018-01-30T04:30:37.899Z,1033.36
2018-01-30T04:31:37.876Z,1033.39
2018-01-30T04:32:37.883Z,1033.39
2018-01-30T04:33:37.792Z,1033.38
2018-01-30T04:34:37.899Z,1033.39
2018-01-30T04:35:37.815Z,1033.36
2018-01-30T04:36:37.784Z,1033.41
2018-01-30T04:37:37.930Z,1033.35
2018-01-30T04:38:37.830Z,1033.36
2018-01-30T04:39:37.921Z,1033.37
2018-01-30T04:40:37.847Z,1033.35
2018-01-30T04:41:37.875Z,1033.34
2018-01-30T04:42:38.004Z,1033.33
2018-01-30T04:43:38.007Z,1033.39
2018-01-30T04:44:37.989Z,1033.39
2018-01-30T04:45:37.813Z,1033.4
2018-01-30T04:46:37.913Z,1033.41
2018-01-30T04:47:37.837Z,1033.42
2018-01-30T04:48:37.824Z,1033.45
2018-01-30T04:49:37.830Z,1033.46
2018-01-30T04:50:37.963Z,1033.51
2018-01-30T04:51:38.003Z,1033.46
2018-01-30T04:52:37.831Z,1033.48
2018-01-30T04:53:37.847Z,1033.49
2018-01-30T04:54:37.821Z,1033.45
2018-01-30T04:55:37.828Z,1033.48
2018-01-30T04:56:37.949Z,1033.51
2018-01-30T04:57:37.922Z,1033.51
2018-01-30T04:58:37.910Z,1033.56
2018-01-30T04:59:37.945Z,1033.53
2018-01-30T05:00:37.887Z,1033.56
2018-01-30T05:01:37.871Z,1033.57
2018-01-30T05:02:37.786Z,1033.56
2018-01-30T05:03:37.815Z,1033.58
2018-01-30T05:04:37.951Z,1033.56
2018-01-30T05:05:37.886Z,1033.58
2018-01-30T05:06:37.955Z,1033.62
2018-01-30T05:07:38.005Z,1033.63
2018-01-30T05:08:37.865Z,1033.59
2018-01-30T05:09:38.883Z,1033.6
2018-01-30T05:10:37.960Z,1033.64
2018-01-30T05:11:38.011Z,1033.6
2018-01-30T05:12:37.909Z,1033.61
2018-01-30T05:13:37.883Z,1033.65
2018-01-30T05:14:37.950Z,1033.62
2018-01-30T05:15:37.910Z,1033.63
2018-01-30T05:16:37.919Z,1033.62
2018-01-30T05:17:37.912Z,1033.63
2018-01-30T05:18:37.917Z,1033.66
2018-01-30T05:19:37.949Z,1033.62
2018-01-30T05:20:37.905Z,1033.66
2018-01-30T05:21:37.963Z,1033.69
2018-01-30T05:22:37.904Z,1033.67
2018-01-30T05:23:37.975Z,1033.7
2018-01-30T05:24:37.858Z,1033.7
2018-01-30T05:25:37.993Z,1033.75
2018-01-30T05:26:37.917Z,1033.69
2018-01-30T05:27:37.908Z,1033.71
2018-01-30T05:28:37.989Z,1033.72
2018-01-30T05:29:38.055Z,1033.72
2018-01-30T05:30:37.950Z,1033.69
2018-01-30T05:31:37.980Z,1033.7
2018-01-30T05:32:37.941Z,1033.74
2018-01-30T05:33:37.967Z,1033.71
2018-01-30T05:34:37.918Z,1033.75
2018-01-30T05:35:37.995Z,1033.78
2018-01-30T05:36:37.864Z,1033.76
2018-01-30T05:39:49.522Z,1033.83
2018-01-30T05:40:38.455Z,1033.78
2018-01-30T05:41:38.397Z,1033.79
2018-01-30T05:42:38.449Z,1033.82
2018-01-30T05:43:38.519Z,1033.83
2018-01-30T05:44:38.433Z,1033.85
2018-01-30T05:45:38.583Z,1033.86
2018-01-30T05:46:38.448Z,1033.85
2018-01-30T05:47:38.430Z,1033.91
2018-01-30T05:48:38.490Z,1033.89
2018-01-30T05:49:38.598Z,1033.88
2018-01-30T05:50:38.472Z,1033.95
2018-01-30T05:51:38.477Z,1033.98
2018-01-30T05:52:38.477Z,1034.01
2018-01-30T05:53:38.514Z,1033.95
2018-01-30T05:54:38.543Z,1033.97
2018-01-30T05:55:38.428Z,1033.95
2018-01-30T05:56:38.501Z,1033.96
2018-01-30T05:57:38.558Z,1033.96
2018-01-30T05:58:38.562Z,1034
2018-01-30T05:59:38.419Z,1033.99
2018-01-30T06:00:38.488Z,1033.94
2018-01-30T06:01:38.601Z,1033.98
2018-01-30T06:02:38.429Z,1033.98
2018-01-30T06:03:38.456Z,1033.96
2018-01-30T06:04:38.452Z,1033.94
2018-01-30T06:05:38.496Z,1034
2018-01-30T06:06:38.497Z,1033.97
2018-01-30T06:08:38.564Z,1033.98
2018-01-30T06:09:38.683Z,1033.99
2018-01-30T06:10:38.662Z,1034.01
2018-01-30T06:11:38.553Z,1034.03
2018-01-30T06:12:38.591Z,1034.04
2018-01-30T06:13:38.549Z,1034.03
2018-01-30T06:14:38.641Z,1034.03
2018-01-30T06:15:38.530Z,1034.07
2018-01-30T06:16:38.509Z,1034.07
2018-01-30T06:17:38.474Z,1034.04
2018-01-30T06:18:38.527Z,1034.02
2018-01-30T06:19:38.465Z,1034.03
2018-01-30T06:20:38.504Z,1034.03
2018-01-30T06:21:38.530Z,1034.03
2018-01-30T06:22:38.486Z,1034.11
2018-01-30T06:23:38.531Z,1034.06
2018-01-30T06:24:38.481Z,1034.1
2018-01-30T06:25:38.477Z,1034.13
2018-01-30T06:26:38.588Z,1034.1
2018-01-30T06:27:38.560Z,1034.12
2018-01-30T06:28:38.556Z,1034.19
2018-01-30T06:29:38.487Z,1034.21
2018-01-30T06:30:38.573Z,1034.2
2018-01-30T06:31:38.539Z,1034.25
2018-01-30T06:32:38.482Z,1034.22
2018-01-30T06:33:38.471Z,1034.26
2018-01-30T06:34:38.554Z,1034.25
2018-01-30T06:35:38.584Z,1034.29
2018-01-30T06:36:38.549Z,1034.22
2018-01-30T06:37:38.721Z,1034.23
2018-01-30T06:38:38.453Z,1034.2
2018-01-30T06:39:38.473Z,1034.23
2018-01-30T06:40:38.753Z,1034.27
2018-01-30T06:41:38.601Z,1034.22
2018-01-30T06:42:38.591Z,1034.26
2018-01-30T06:43:38.613Z,1034.31
2018-01-30T06:44:38.620Z,1034.3
2018-01-30T06:45:38.713Z,1034.31
2018-01-30T06:46:38.550Z,1034.38
2018-01-30T06:47:38.578Z,1034.36
2018-01-30T06:48:38.492Z,1034.36
2018-01-30T06:49:38.604Z,1034.36
2018-01-30T06:50:38.558Z,1034.37
2018-01-30T06:51:38.500Z,1034.35
2018-01-30T06:52:38.534Z,1034.41
2018-01-30T06:53:38.545Z,1034.38
2018-01-30T06:54:38.564Z,1034.41
2018-01-30T06:55:38.597Z,1034.37
2018-01-30T06:56:38.532Z,1034.37
2018-01-30T06:57:38.460Z,1034.4
2018-01-30T06:58:38.704Z,1034.44
2018-01-30T06:59:38.584Z,1034.46
2018-01-30T07:00:38.861Z,1034.45
2018-01-30T07:01:38.579Z,1034.39
2018-01-30T07:02:38.544Z,1034.37
2018-01-30T07:03:38.465Z,1034.36
2018-01-30T07:04:38.618Z,1034.39
2018-01-30T07:05:38.611Z,1034.41
2018-01-30T07:06:38.630Z,1034.42
2018-01-30T07:07:38.510Z,1034.44
2018-01-30T07:08:38.591Z,1034.4
2018-01-30T07:09:38.654Z,1034.36
2018-01-30T07:10:38.653Z,1034.36
2018-01-30T07:11:38.659Z,1034.31
2018-01-30T07:12:38.632Z,1034.32
2018-01-30T07:13:38.626Z,1034.32
2018-01-30T07:14:38.554Z,1034.31
2018-01-30T07:15:38.557Z,1034.29
2018-01-30T07:16:38.532Z,1034.26
2018-01-30T07:17:38.688Z,1034.29
2018-01-30T07:18:38.638Z,1034.31
2018-01-30T07:19:38.620Z,1034.29
2018-01-30T07:20:38.536Z,1034.31
2018-01-30T07:21:38.555Z,1034.28
2018-01-30T07:22:38.638Z,1034.27
2018-01-30T07:23:38.532Z,1034.27
2018-01-30T07:24:38.578Z,1034.23
2018-01-30T07:25:38.635Z,1034.22
2018-01-30T07:26:38.612Z,1034.26
2018-01-30T07:27:38.568Z,1034.28
2018-01-30T07:28:38.521Z,1034.26
2018-01-30T07:29:38.529Z,1034.31
2018-01-30T07:30:38.619Z,1034.29
2018-01-30T07:31:38.571Z,1034.37
2018-01-30T07:32:38.620Z,1034.34
2018-01-30T07:33:38.591Z,1034.44
2018-01-30T07:34:38.872Z,1034.42
2018-01-30T07:35:38.594Z,1034.42
2018-01-30T07:36:38.557Z,1034.41
2018-01-30T07:37:38.551Z,1034.42
2018-01-30T07:38:38.639Z,1034.41
2018-01-30T07:39:38.650Z,1034.37
2018-01-30T07:40:38.638Z,1034.4
2018-01-30T07:41:38.562Z,1034.45
2018-01-30T07:42:38.647Z,1034.44
2018-01-30T07:43:38.644Z,1034.49
2018-01-30T07:44:38.624Z,1034.47
2018-01-30T07:45:38.644Z,1034.44
2018-01-30T07:46:38.566Z,1034.44
2018-01-30T07:47:38.584Z,1034.38
2018-01-30T07:48:38.652Z,1034.4
2018-01-30T07:49:38.648Z,1034.4
2018-01-30T07:50:38.637Z,1034.42
2018-01-30T07:51:39.158Z,1034.47
2018-01-30T07:52:38.618Z,1034.47
2018-01-30T07:53:38.631Z,1034.44
2018-01-30T07:54:38.683Z,1034.44
2018-01-30T07:55:38.658Z,1034.47
2018-01-30T07:56:38.696Z,1034.49
2018-01-30T07:57:38.714Z,1034.54
2018-01-30T07:58:38.645Z,1034.54
2018-01-30T07:59:38.686Z,1034.55
2018-01-30T08:00:38.659Z,1034.57
2018-01-30T08:01:38.695Z,1034.55
2018-01-30T08:02:38.681Z,1034.52
2018-01-30T08:03:38.559Z,1034.53
2018-01-30T08:04:38.599Z,1034.51
2018-01-30T08:05:38.656Z,1034.54
2018-01-30T08:06:38.677Z,1034.55
2018-01-30T08:07:38.874Z,1034.53
2018-01-30T08:08:38.606Z,1034.54
2018-01-30T08:09:38.688Z,1034.53
2018-01-30T08:10:38.730Z,1034.51
2018-01-30T08:11:38.667Z,1034.5
2018-01-30T08:12:39.508Z,1034.53
2018-01-30T08:13:38.613Z,1034.53
2018-01-30T08:14:38.692Z,1034.54
2018-01-30T08:15:38.726Z,1034.52
2018-01-30T08:16:38.731Z,1034.51
2018-01-30T08:17:38.640Z,1034.54
2018-01-30T08:18:38.692Z,1034.58
2018-01-30T08:19:38.788Z,1034.58
2018-01-30T08:20:38.667Z,1034.55
2018-01-30T08:21:38.646Z,1034.57
2018-01-30T08:22:38.733Z,1034.57
2018-01-30T08:23:38.586Z,1034.53
2018-01-30T08:24:38.631Z,1034.5
2018-01-30T08:25:38.720Z,1034.49
2018-01-30T08:26:39.297Z,1034.53
2018-01-30T08:27:38.672Z,1034.55
2018-01-30T08:28:38.658Z,1034.56
2018-01-30T08:29:38.631Z,1034.57
2018-01-30T08:30:38.652Z,1034.6
2018-01-30T08:31:38.566Z,1034.63
2018-01-30T08:32:38.696Z,1034.66
2018-01-30T08:33:38.704Z,1034.6
2018-01-30T08:34:38.679Z,1034.51
2018-01-30T08:35:38.692Z,1034.5
2018-01-30T08:36:38.693Z,1034.55
2018-01-30T08:37:38.685Z,1034.56
2018-01-30T08:38:38.586Z,1034.63
2018-01-30T08:39:38.599Z,1034.61
2018-01-30T08:40:38.739Z,1034.56
2018-01-30T08:41:38.551Z,1034.6
2018-01-30T08:42:38.691Z,1034.65
2018-01-30T08:43:38.662Z,1034.62
2018-01-30T08:44:38.527Z,1034.63
2018-01-30T08:45:38.646Z,1034.7
2018-01-30T08:46:38.646Z,1034.67
2018-01-30T08:47:38.575Z,1034.66
2018-01-30T08:48:38.610Z,1034.63
2018-01-30T08:49:38.685Z,1034.6
2018-01-30T08:50:38.602Z,1034.58
2018-01-30T08:51:38.663Z,1034.59
2018-01-30T08:52:38.645Z,1034.61
2018-01-30T08:53:38.594Z,1034.6
2018-01-30T08:54:38.620Z,1034.55
2018-01-30T08:55:38.694Z,1034.56
2018-01-30T08:56:38.724Z,1034.53
2018-01-30T08:57:38.701Z,1034.52
2018-01-30T08:58:38.555Z,1034.51
2018-01-30T08:59:38.541Z,1034.53
2018-01-30T09:00:38.629Z,1034.54
2018-01-30T09:01:38.854Z,1034.54
2018-01-30T09:02:38.582Z,1034.57
2018-01-30T09:03:38.579Z,1034.53
2018-01-30T09:04:38.595Z,1034.53
2018-01-30T09:05:38.640Z,1034.53
2018-01-30T09:06:38.702Z,1034.57
2018-01-30T09:07:39.064Z,1034.59
2018-01-30T09:08:38.723Z,1034.52
2018-01-30T09:09:38.603Z,1034.55
2018-01-30T09:10:38.757Z,1034.53
2018-01-30T09:11:37.773Z,1034.54
2018-01-30T09:12:37.666Z,1034.54
2018-01-30T09:13:38.082Z,1034.5
2018-01-30T09:14:37.701Z,1034.47
2018-01-30T09:15:37.708Z,1034.45
2018-01-30T09:16:37.632Z,1034.45
2018-01-30T09:17:37.742Z,1034.41
2018-01-30T09:18:37.889Z,1034.43
2018-01-30T09:19:37.683Z,1034.44
2018-01-30T09:20:37.731Z,1034.47
2018-01-30T09:21:38.691Z,1034.51
2018-01-30T09:22:37.731Z,1034.49
2018-01-30T09:23:37.700Z,1034.5
2018-01-30T09:24:37.728Z,1034.49
2018-01-30T09:25:37.741Z,1034.48
2018-01-30T09:26:37.746Z,1034.43
2018-01-30T09:27:37.791Z,1034.42
2018-01-30T09:28:37.826Z,1034.39
2018-01-30T09:29:37.796Z,1034.42
2018-01-30T09:30:37.645Z,1034.43
2018-01-30T09:31:37.703Z,1034.47
2018-01-30T09:32:38.598Z,1034.49
2018-01-30T09:33:38.056Z,1034.53
2018-01-30T09:34:37.738Z,1034.56
2018-01-30T09:35:37.691Z,1034.51
2018-01-30T09:36:37.737Z,1034.53
2018-01-30T09:37:37.776Z,1034.51
2018-01-30T09:38:37.689Z,1034.47
2018-01-30T09:39:37.709Z,1034.5
2018-01-30T09:40:37.869Z,1034.48
2018-01-30T09:41:37.913Z,1034.45
2018-01-30T09:42:37.893Z,1034.44
2018-01-30T09:43:37.874Z,1034.47
2018-01-30T09:44:37.892Z,1034.47
2018-01-30T09:45:37.972Z,1034.44
2018-01-30T09:46:37.895Z,1034.45
2018-01-30T09:47:37.827Z,1034.44
2018-01-30T09:48:37.819Z,1034.43
2018-01-30T09:49:37.900Z,1034.45
2018-01-30T09:50:38.397Z,1034.47
2018-01-30T09:51:37.904Z,1034.47
2018-01-30T09:52:37.886Z,1034.48
2018-01-30T09:53:37.895Z,1034.45
2018-01-30T09:54:38.004Z,1034.44
2018-01-30T09:55:38.131Z,1034.46
2018-01-30T09:56:37.777Z,1034.44
2018-01-30T09:57:37.798Z,1034.43
2018-01-30T09:58:37.904Z,1034.48
2018-01-30T09:59:37.893Z,1034.44
2018-01-30T10:00:39.280Z,1034.48
2018-01-30T10:01:37.949Z,1034.51
2018-01-30T10:02:37.861Z,1034.53
2018-01-30T10:03:38.464Z,1034.45
2018-01-30T10:04:37.890Z,1034.44
2018-01-30T10:05:37.781Z,1034.44
2018-01-30T10:06:38.017Z,1034.43
2018-01-30T10:07:37.774Z,1034.41
2018-01-30T10:08:38.122Z,1034.45
2018-01-30T10:09:37.799Z,1034.47
2018-01-30T10:10:37.816Z,1034.45
2018-01-30T10:11:38.090Z,1034.41
2018-01-30T10:12:37.979Z,1034.41
2018-01-30T10:13:37.959Z,1034.4
2018-01-30T10:14:38.321Z,1034.34
2018-01-30T10:15:38.033Z,1034.34
2018-01-30T10:16:38.031Z,1034.34
2018-01-30T10:17:37.938Z,1034.33
2018-01-30T10:18:38.074Z,1034.4
2018-01-30T10:19:38.358Z,1034.38
2018-01-30T10:20:38.373Z,1034.43
2018-01-30T10:21:38.034Z,1034.45
2018-01-30T10:22:37.978Z,1034.41
2018-01-30T10:23:38.098Z,1034.45
2018-01-30T10:24:37.941Z,1034.38
2018-01-30T10:25:38.256Z,1034.39
2018-01-30T10:26:37.944Z,1034.35
2018-01-30T10:27:38.024Z,1034.34
2018-01-30T10:28:38.183Z,1034.3
2018-01-30T10:29:39.136Z,1034.27
2018-01-30T10:30:39.017Z,1034.29
2018-01-30T10:31:39.666Z,1034.3
2018-01-30T10:32:38.808Z,1034.24
2018-01-30T10:33:38.012Z,1034.24
2018-01-30T10:34:38.124Z,1034.2
2018-01-30T10:35:38.026Z,1034.18
2018-01-30T10:36:38.339Z,1034.2
2018-01-30T10:37:38.714Z,1034.16
2018-01-30T10:38:38.642Z,1034.18
2018-01-30T10:39:38.648Z,1034.2
2018-01-30T10:40:38.012Z,1034.15
2018-01-30T10:41:38.591Z,1034.13
2018-01-30T10:42:39.594Z,1034.16
2018-01-30T10:43:38.543Z,1034.12
2018-01-30T10:44:38.913Z,1034.15
2018-01-30T10:45:38.261Z,1034.18
2018-01-30T10:46:38.237Z,1034.19
2018-01-30T10:47:38.231Z,1034.15
2018-01-30T10:48:38.295Z,1034.12
2018-01-30T10:49:38.849Z,1034.1
2018-01-30T10:50:38.312Z,1034.08
2018-01-30T10:51:38.381Z,1034.07
2018-01-30T10:52:38.358Z,1034.02
2018-01-30T10:53:38.337Z,1034.01
2018-01-30T10:54:38.306Z,1034.01
2018-01-30T10:55:39.506Z,1034.05
2018-01-30T10:56:39.114Z,1034.02
2018-01-30T10:57:38.356Z,1033.99
2018-01-30T10:58:38.269Z,1034.07
2018-01-30T10:59:38.279Z,1034.01
2018-01-30T11:00:38.383Z,1033.98
2018-01-30T11:01:39.283Z,1033.98
2018-01-30T11:02:38.359Z,1033.91
2018-01-30T11:03:38.334Z,1033.89
2018-01-30T11:04:38.342Z,1033.84
2018-01-30T11:05:38.342Z,1033.83
2018-01-30T11:06:39.042Z,1033.77
2018-01-30T11:07:38.318Z,1033.7
2018-01-30T11:08:38.399Z,1033.76
2018-01-30T11:09:38.940Z,1033.77
2018-01-30T11:10:38.317Z,1033.72
2018-01-30T11:11:38.771Z,1033.65
2018-01-30T11:12:38.394Z,1033.63
2018-01-30T11:13:38.281Z,1033.63
2018-01-30T11:14:38.415Z,1033.58
2018-01-30T11:15:38.463Z,1033.62
2018-01-30T11:16:39.543Z,1033.57
2018-01-30T11:17:38.363Z,1033.57
2018-01-30T11:18:38.636Z,1033.54
2018-01-30T11:19:38.389Z,1033.6
2018-01-30T11:20:38.302Z,1033.7
2018-01-30T11:21:38.273Z,1033.67
2018-01-30T11:22:38.435Z,1033.77
2018-01-30T11:23:38.452Z,1033.79
2018-01-30T11:24:38.359Z,1033.78
2018-01-30T11:25:38.429Z,1033.79
2018-01-30T11:26:38.388Z,1033.75
2018-01-30T11:27:38.613Z,1033.7
2018-01-30T11:28:38.327Z,1033.66
2018-01-30T11:29:38.293Z,1033.62
2018-01-30T11:30:38.268Z,1033.64
2018-01-30T11:31:38.392Z,1033.61
2018-01-30T11:32:38.529Z,1033.61
2018-01-30T11:33:38.279Z,1033.63
2018-01-30T11:34:38.344Z,1033.64
2018-01-30T11:35:38.395Z,1033.67
2018-01-30T11:36:38.266Z,1033.62
2018-01-30T11:37:38.390Z,1033.53
2018-01-30T11:38:38.353Z,1033.51
2018-01-30T11:39:38.294Z,1033.51
2018-01-30T11:40:38.378Z,1033.51
2018-01-30T11:41:39.113Z,1033.56
2018-01-30T11:42:38.195Z,1033.54
2018-01-30T11:43:38.049Z,1033.48
2018-01-30T11:44:38.139Z,1033.53
2018-01-30T11:45:38.053Z,1033.5
2018-01-30T11:46:38.190Z,1033.52
2018-01-30T11:47:37.993Z,1033.46
2018-01-30T11:48:38.114Z,1033.48
2018-01-30T11:49:38.132Z,1033.5
2018-01-30T11:50:38.130Z,1033.49
2018-01-30T11:51:37.957Z,1033.47
2018-01-30T11:52:37.957Z,1033.51
2018-01-30T11:53:38.095Z,1033.46
2018-01-30T11:54:38.126Z,1033.46
2018-01-30T11:55:38.018Z,1033.4
2018-01-30T11:56:38.035Z,1033.4
2018-01-30T11:57:38.012Z,1033.38
2018-01-30T11:58:38.093Z,1033.39
2018-01-30T11:59:38.597Z,1033.35
2018-01-30T12:00:38.105Z,1033.32
2018-01-30T12:01:38.113Z,1033.39
2018-01-30T12:02:38.130Z,1033.35
2018-01-30T12:03:38.173Z,1033.28
2018-01-30T12:04:38.367Z,1033.27
2018-01-30T12:05:38.240Z,1033.28
2018-01-30T12:06:38.097Z,1033.25
2018-01-30T12:07:38.023Z,1033.24
2018-01-30T12:08:38.095Z,1033.22
2018-01-30T12:09:38.014Z,1033.2
2018-01-30T12:10:38.152Z,1033.21
2018-01-30T12:11:38.127Z,1033.16